Terminal Aerodrome Forecast
Issued by NWS Jackson, KY

Home | Current Version | Previous Version | Text Only | Print | Product List | Glossary On
Versions: 1 2 3 4 5 6 7 8 9 10 11 12 13 14 15 16 17 18 19 20 21 22 23
955
FTUS43 KJKL 220520
TAFLOZ
TAF
KLOZ 220520Z 2206/2306 00000KT P6SM -SHRA OVC035
     FM221000 00000KT P6SM -SHRA OVC015
     FM221600 16005KT P6SM VCSH OVC020
     FM221900 16005KT P6SM OVC045=

USA.gov is the U.S. government's official web portal to all federal, state and local government web resources and services.